sensor_id;sensor_type;location;lat;lon;timestamp;P1;durP1;ratioP1;P2;durP2;ratioP2
50681;SDS011;36779;52.168;20.878;2023-06-14T00:02:18;7.30;;;4.30;;
50681;SDS011;36779;52.168;20.878;2023-06-14T00:04:53;8.10;;;4.40;;
50681;SDS011;36779;52.168;20.878;2023-06-14T00:07:37;8.00;;;4.70;;
50681;SDS011;36779;52.168;20.878;2023-06-14T00:10:14;9.60;;;4.60;;
50681;SDS011;36779;52.168;20.878;2023-06-14T00:12:50;8.90;;;4.50;;
50681;SDS011;36779;52.168;20.878;2023-06-14T00:15:28;7.90;;;4.90;;
50681;SDS011;36779;52.168;20.878;2023-06-14T00:18:01;8.80;;;4.40;;
50681;SDS011;36779;52.168;20.878;2023-06-14T00:20:34;10.00;;;4.30;;
50681;SDS011;36779;52.168;20.878;2023-06-14T00:23:11;9.20;;;5.10;;
50681;SDS011;36779;52.168;20.878;2023-06-14T00:25:52;8.40;;;4.50;;
50681;SDS011;36779;52.168;20.878;2023-06-14T00:28:29;10.00;;;4.70;;
50681;SDS011;36779;52.168;20.878;2023-06-14T00:31:04;9.80;;;5.00;;
50681;SDS011;36779;52.168;20.878;2023-06-14T00:33:36;6.70;;;4.30;;
50681;SDS011;36779;52.168;20.878;2023-06-14T00:36:14;9.10;;;4.90;;
50681;SDS011;36779;52.168;20.878;2023-06-14T00:38:54;8.60;;;4.60;;
50681;SDS011;36779;52.168;20.878;2023-06-14T00:41:26;9.10;;;4.30;;
50681;SDS011;36779;52.168;20.878;2023-06-14T00:44:04;6.80;;;4.30;;
50681;SDS011;36779;52.168;20.878;2023-06-14T00:46:38;6.50;;;3.70;;
50681;SDS011;36779;52.168;20.878;2023-06-14T00:49:13;7.20;;;4.10;;
50681;SDS011;36779;52.168;20.878;2023-06-14T00:51:50;10.20;;;3.80;;
50681;SDS011;36779;52.168;20.878;2023-06-14T00:54:29;9.80;;;4.10;;
50681;SDS011;36779;52.168;20.878;2023-06-14T00:57:07;8.90;;;3.80;;
50681;SDS011;36779;52.168;20.878;2023-06-14T00:59:43;7.70;;;4.00;;
50681;SDS011;36779;52.168;20.878;2023-06-14T01:02:19;5.60;;;3.30;;
50681;SDS011;36779;52.168;20.878;2023-06-14T01:04:53;8.90;;;3.70;;
50681;SDS011;36779;52.168;20.878;2023-06-14T01:07:33;6.30;;;3.90;;
50681;SDS011;36779;52.168;20.878;2023-06-14T01:10:15;5.60;;;3.10;;
50681;SDS011;36779;52.168;20.878;2023-06-14T01:13:20;6.50;;;3.90;;
50681;SDS011;36779;52.168;20.878;2023-06-14T01:15:58;6.50;;;3.80;;
50681;SDS011;36779;52.168;20.878;2023-06-14T01:18:32;6.70;;;3.70;;
50681;SDS011;36779;52.168;20.878;2023-06-14T01:21:04;6.10;;;3.50;;
50681;SDS011;36779;52.168;20.878;2023-06-14T01:23:54;9.90;;;3.60;;
50681;SDS011;36779;52.168;20.878;2023-06-14T01:26:28;10.80;;;4.00;;
50681;SDS011;36779;52.168;20.878;2023-06-14T01:29:02;7.10;;;3.60;;
50681;SDS011;36779;52.168;20.878;2023-06-14T01:31:36;5.30;;;3.30;;
50681;SDS011;36779;52.168;20.878;2023-06-14T01:34:12;7.90;;;4.20;;
50681;SDS011;36779;52.168;20.878;2023-06-14T01:36:46;11.00;;;5.20;;
50681;SDS011;36779;52.168;20.878;2023-06-14T01:39:31;7.80;;;4.10;;
50681;SDS011;36779;52.168;20.878;2023-06-14T01:42:07;7.20;;;3.90;;
50681;SDS011;36779;52.168;20.878;2023-06-14T01:44:46;6.30;;;3.90;;
50681;SDS011;36779;52.168;20.878;2023-06-14T01:47:21;7.70;;;4.20;;
50681;SDS011;36779;52.168;20.878;2023-06-14T01:49:56;6.90;;;4.30;;
50681;SDS011;36779;52.168;20.878;2023-06-14T01:52:36;6.80;;;4.00;;
50681;SDS011;36779;52.168;20.878;2023-06-14T01:55:12;7.60;;;4.20;;
50681;SDS011;36779;52.168;20.878;2023-06-14T01:57:47;6.80;;;4.10;;
50681;SDS011;36779;52.168;20.878;2023-06-14T02:00:31;7.50;;;4.10;;
50681;SDS011;36779;52.168;20.878;2023-06-14T02:03:05;5.90;;;3.70;;
50681;SDS011;36779;52.168;20.878;2023-06-14T02:05:44;6.10;;;3.80;;
50681;SDS011;36779;52.168;20.878;2023-06-14T02:08:25;7.20;;;4.60;;
50681;SDS011;36779;52.168;20.878;2023-06-14T02:11:02;7.00;;;4.00;;
50681;SDS011;36779;52.168;20.878;2023-06-14T02:13:37;9.00;;;4.10;;
50681;SDS011;36779;52.168;20.878;2023-06-14T02:16:09;8.80;;;4.30;;
50681;SDS011;36779;52.168;20.878;2023-06-14T02:18:46;7.90;;;4.60;;
50681;SDS011;36779;52.168;20.878;2023-06-14T02:21:24;10.50;;;4.00;;
50681;SDS011;36779;52.168;20.878;2023-06-14T02:23:56;7.70;;;4.10;;
50681;SDS011;36779;52.168;20.878;2023-06-14T02:26:30;6.60;;;4.00;;
50681;SDS011;36779;52.168;20.878;2023-06-14T02:29:03;8.70;;;4.10;;
50681;SDS011;36779;52.168;20.878;2023-06-14T02:31:39;7.50;;;4.10;;
50681;SDS011;36779;52.168;20.878;2023-06-14T02:34:11;6.90;;;4.10;;
50681;SDS011;36779;52.168;20.878;2023-06-14T02:36:53;6.40;;;3.90;;
50681;SDS011;36779;52.168;20.878;2023-06-14T02:39:30;5.80;;;4.10;;
50681;SDS011;36779;52.168;20.878;2023-06-14T02:42:09;6.90;;;4.30;;
50681;SDS011;36779;52.168;20.878;2023-06-14T02:44:46;5.80;;;4.20;;
50681;SDS011;36779;52.168;20.878;2023-06-14T02:47:25;8.50;;;4.30;;
50681;SDS011;36779;52.168;20.878;2023-06-14T02:49:59;10.40;;;4.20;;
50681;SDS011;36779;52.168;20.878;2023-06-14T02:52:46;8.60;;;4.10;;
50681;SDS011;36779;52.168;20.878;2023-06-14T02:55:18;9.70;;;4.30;;
50681;SDS011;36779;52.168;20.878;2023-06-14T02:57:55;10.10;;;4.40;;
50681;SDS011;36779;52.168;20.878;2023-06-14T03:00:30;8.90;;;4.80;;
50681;SDS011;36779;52.168;20.878;2023-06-14T03:03:07;9.50;;;4.80;;
50681;SDS011;36779;52.168;20.878;2023-06-14T03:05:57;6.70;;;4.00;;
50681;SDS011;36779;52.168;20.878;2023-06-14T03:08:38;9.20;;;4.30;;
50681;SDS011;36779;52.168;20.878;2023-06-14T03:11:16;7.70;;;4.70;;
50681;SDS011;36779;52.168;20.878;2023-06-14T03:13:50;7.30;;;3.80;;
50681;SDS011;36779;52.168;20.878;2023-06-14T03:16:24;7.20;;;4.10;;
50681;SDS011;36779;52.168;20.878;2023-06-14T03:19:00;14.00;;;4.70;;
50681;SDS011;36779;52.168;20.878;2023-06-14T03:21:34;6.70;;;3.60;;
50681;SDS011;36779;52.168;20.878;2023-06-14T03:24:06;5.40;;;3.60;;
50681;SDS011;36779;52.168;20.878;2023-06-14T03:26:40;6.60;;;4.20;;
50681;SDS011;36779;52.168;20.878;2023-06-14T03:29:13;7.60;;;4.20;;
50681;SDS011;36779;52.168;20.878;2023-06-14T03:31:57;8.70;;;4.10;;
50681;SDS011;36779;52.168;20.878;2023-06-14T03:34:44;6.80;;;3.90;;
50681;SDS011;36779;52.168;20.878;2023-06-14T03:37:25;7.90;;;4.30;;
50681;SDS011;36779;52.168;20.878;2023-06-14T03:40:05;5.90;;;3.60;;
50681;SDS011;36779;52.168;20.878;2023-06-14T03:43:07;9.30;;;4.40;;
50681;SDS011;36779;52.168;20.878;2023-06-14T03:45:43;13.60;;;5.00;;
50681;SDS011;36779;52.168;20.878;2023-06-14T03:48:20;8.80;;;5.30;;
50681;SDS011;36779;52.168;20.878;2023-06-14T03:51:00;7.70;;;4.50;;
50681;SDS011;36779;52.168;20.878;2023-06-14T03:53:33;7.60;;;4.50;;
50681;SDS011;36779;52.168;20.878;2023-06-14T03:56:25;9.90;;;4.20;;
50681;SDS011;36779;52.168;20.878;2023-06-14T03:59:10;7.40;;;4.40;;
50681;SDS011;36779;52.168;20.878;2023-06-14T04:01:48;7.70;;;4.30;;
50681;SDS011;36779;52.168;20.878;2023-06-14T04:04:23;5.40;;;3.90;;
50681;SDS011;36779;52.168;20.878;2023-06-14T04:07:01;9.60;;;4.80;;
50681;SDS011;36779;52.168;20.878;2023-06-14T04:09:34;7.10;;;4.60;;
50681;SDS011;36779;52.168;20.878;2023-06-14T04:12:10;8.00;;;4.20;;
50681;SDS011;36779;52.168;20.878;2023-06-14T04:14:43;6.50;;;4.20;;
50681;SDS011;36779;52.168;20.878;2023-06-14T04:17:24;6.00;;;4.30;;
50681;SDS011;36779;52.168;20.878;2023-06-14T04:19:57;8.70;;;4.10;;
50681;SDS011;36779;52.168;20.878;2023-06-14T04:22:48;6.70;;;4.50;;
50681;SDS011;36779;52.168;20.878;2023-06-14T04:25:42;6.30;;;4.80;;
50681;SDS011;36779;52.168;20.878;2023-06-14T04:28:27;9.50;;;4.90;;
50681;SDS011;36779;52.168;20.878;2023-06-14T04:33:40;8.60;;;4.70;;
50681;SDS011;36779;52.168;20.878;2023-06-14T04:36:20;10.30;;;4.80;;
50681;SDS011;36779;52.168;20.878;2023-06-14T04:39:02;7.90;;;5.00;;
50681;SDS011;36779;52.168;20.878;2023-06-14T04:41:36;7.80;;;4.70;;
50681;SDS011;36779;52.168;20.878;2023-06-14T04:44:26;9.30;;;5.00;;
50681;SDS011;36779;52.168;20.878;2023-06-14T04:47:11;5.80;;;4.20;;
50681;SDS011;36779;52.168;20.878;2023-06-14T04:49:54;8.30;;;5.00;;
50681;SDS011;36779;52.168;20.878;2023-06-14T04:52:32;10.40;;;4.90;;
50681;SDS011;36779;52.168;20.878;2023-06-14T04:55:08;8.20;;;5.30;;
50681;SDS011;36779;52.168;20.878;2023-06-14T04:57:40;10.60;;;5.00;;
50681;SDS011;36779;52.168;20.878;2023-06-14T05:00:13;9.20;;;5.40;;
50681;SDS011;36779;52.168;20.878;2023-06-14T05:02:48;8.90;;;4.90;;
50681;SDS011;36779;52.168;20.878;2023-06-14T05:05:23;7.80;;;4.80;;
50681;SDS011;36779;52.168;20.878;2023-06-14T05:07:55;6.60;;;4.70;;
50681;SDS011;36779;52.168;20.878;2023-06-14T05:10:28;9.50;;;5.30;;
50681;SDS011;36779;52.168;20.878;2023-06-14T05:13:00;8.20;;;5.10;;
50681;SDS011;36779;52.168;20.878;2023-06-14T05:15:37;7.40;;;4.60;;
50681;SDS011;36779;52.168;20.878;2023-06-14T05:18:13;9.70;;;4.40;;
50681;SDS011;36779;52.168;20.878;2023-06-14T05:20:46;11.70;;;5.60;;
50681;SDS011;36779;52.168;20.878;2023-06-14T05:23:18;9.10;;;4.70;;
50681;SDS011;36779;52.168;20.878;2023-06-14T05:25:52;9.80;;;4.50;;
50681;SDS011;36779;52.168;20.878;2023-06-14T05:28:30;10.10;;;5.10;;
50681;SDS011;36779;52.168;20.878;2023-06-14T05:31:06;8.30;;;5.10;;
50681;SDS011;36779;52.168;20.878;2023-06-14T05:33:39;9.60;;;5.20;;
50681;SDS011;36779;52.168;20.878;2023-06-14T05:36:11;9.70;;;4.90;;
50681;SDS011;36779;52.168;20.878;2023-06-14T05:38:49;7.80;;;4.80;;
50681;SDS011;36779;52.168;20.878;2023-06-14T05:41:35;9.30;;;6.00;;
50681;SDS011;36779;52.168;20.878;2023-06-14T05:44:10;8.90;;;5.30;;
50681;SDS011;36779;52.168;20.878;2023-06-14T05:46:46;10.60;;;5.40;;
50681;SDS011;36779;52.168;20.878;2023-06-14T05:49:22;9.40;;;4.90;;
50681;SDS011;36779;52.168;20.878;2023-06-14T05:51:54;7.30;;;4.60;;
50681;SDS011;36779;52.168;20.878;2023-06-14T05:54:27;9.50;;;5.60;;
50681;SDS011;36779;52.168;20.878;2023-06-14T05:57:03;7.20;;;5.20;;
50681;SDS011;36779;52.168;20.878;2023-06-14T05:59:37;8.50;;;5.00;;
50681;SDS011;36779;52.168;20.878;2023-06-14T06:02:13;11.40;;;4.90;;
50681;SDS011;36779;52.168;20.878;2023-06-14T06:04:57;11.60;;;5.50;;
50681;SDS011;36779;52.168;20.878;2023-06-14T06:07:30;7.00;;;4.70;;
50681;SDS011;36779;52.168;20.878;2023-06-14T06:10:07;8.60;;;4.50;;
50681;SDS011;36779;52.168;20.878;2023-06-14T06:12:42;9.40;;;5.20;;
50681;SDS011;36779;52.168;20.878;2023-06-14T06:15:24;9.50;;;4.50;;
50681;SDS011;36779;52.168;20.878;2023-06-14T06:17:58;6.90;;;4.20;;
50681;SDS011;36779;52.168;20.878;2023-06-14T06:20:34;8.50;;;5.10;;
50681;SDS011;36779;52.168;20.878;2023-06-14T06:23:09;8.60;;;4.90;;
50681;SDS011;36779;52.168;20.878;2023-06-14T06:25:47;8.80;;;5.10;;
50681;SDS011;36779;52.168;20.878;2023-06-14T06:28:19;9.00;;;4.90;;
50681;SDS011;36779;52.168;20.878;2023-06-14T06:30:55;9.30;;;5.20;;
50681;SDS011;36779;52.168;20.878;2023-06-14T06:33:33;11.90;;;5.50;;
50681;SDS011;36779;52.168;20.878;2023-06-14T06:36:08;8.80;;;5.00;;
50681;SDS011;36779;52.168;20.878;2023-06-14T06:38:45;7.30;;;4.50;;
50681;SDS011;36779;52.168;20.878;2023-06-14T06:41:18;8.40;;;4.60;;
50681;SDS011;36779;52.168;20.878;2023-06-14T06:43:54;8.10;;;5.00;;
50681;SDS011;36779;52.168;20.878;2023-06-14T06:46:31;10.80;;;5.70;;
50681;SDS011;36779;52.168;20.878;2023-06-14T06:49:26;7.80;;;4.70;;
50681;SDS011;36779;52.168;20.878;2023-06-14T06:52:02;6.90;;;4.50;;
50681;SDS011;36779;52.168;20.878;2023-06-14T06:54:44;8.50;;;4.00;;
50681;SDS011;36779;52.168;20.878;2023-06-14T06:57:24;9.30;;;5.00;;
50681;SDS011;36779;52.168;20.878;2023-06-14T06:59:57;6.30;;;3.80;;
50681;SDS011;36779;52.168;20.878;2023-06-14T07:02:30;9.30;;;3.90;;
50681;SDS011;36779;52.168;20.878;2023-06-14T07:05:04;6.70;;;3.60;;
50681;SDS011;36779;52.168;20.878;2023-06-14T07:07:45;4.80;;;3.40;;
50681;SDS011;36779;52.168;20.878;2023-06-14T07:10:17;5.30;;;3.30;;
50681;SDS011;36779;52.168;20.878;2023-06-14T07:12:50;5.30;;;2.90;;
50681;SDS011;36779;52.168;20.878;2023-06-14T07:15:24;6.10;;;3.10;;
50681;SDS011;36779;52.168;20.878;2023-06-14T07:17:57;5.20;;;3.10;;
50681;SDS011;36779;52.168;20.878;2023-06-14T07:20:33;6.80;;;3.20;;
50681;SDS011;36779;52.168;20.878;2023-06-14T07:23:08;5.90;;;2.90;;
50681;SDS011;36779;52.168;20.878;2023-06-14T07:25:45;6.20;;;3.40;;
50681;SDS011;36779;52.168;20.878;2023-06-14T07:28:18;5.30;;;3.30;;
50681;SDS011;36779;52.168;20.878;2023-06-14T07:31:00;3.70;;;2.70;;
50681;SDS011;36779;52.168;20.878;2023-06-14T07:33:39;5.50;;;2.70;;
50681;SDS011;36779;52.168;20.878;2023-06-14T07:36:15;7.80;;;3.40;;
50681;SDS011;36779;52.168;20.878;2023-06-14T07:39:03;6.10;;;4.30;;
50681;SDS011;36779;52.168;20.878;2023-06-14T07:41:42;6.80;;;3.50;;
50681;SDS011;36779;52.168;20.878;2023-06-14T07:44:16;6.60;;;3.20;;
50681;SDS011;36779;52.168;20.878;2023-06-14T07:46:52;5.60;;;3.40;;
50681;SDS011;36779;52.168;20.878;2023-06-14T07:49:32;5.10;;;3.40;;
50681;SDS011;36779;52.168;20.878;2023-06-14T07:52:12;7.30;;;3.80;;
50681;SDS011;36779;52.168;20.878;2023-06-14T07:54:47;5.20;;;3.10;;
50681;SDS011;36779;52.168;20.878;2023-06-14T07:57:21;4.30;;;3.00;;
50681;SDS011;36779;52.168;20.878;2023-06-14T07:59:56;4.60;;;3.00;;
50681;SDS011;36779;52.168;20.878;2023-06-14T08:02:43;4.80;;;3.60;;
50681;SDS011;36779;52.168;20.878;2023-06-14T08:05:16;6.10;;;3.90;;
50681;SDS011;36779;52.168;20.878;2023-06-14T08:07:52;4.60;;;3.50;;
50681;SDS011;36779;52.168;20.878;2023-06-14T08:10:28;7.20;;;3.80;;
50681;SDS011;36779;52.168;20.878;2023-06-14T08:13:05;4.70;;;4.00;;
50681;SDS011;36779;52.168;20.878;2023-06-14T08:15:39;7.40;;;4.30;;
50681;SDS011;36779;52.168;20.878;2023-06-14T08:18:11;6.10;;;3.60;;
50681;SDS011;36779;52.168;20.878;2023-06-14T08:20:54;6.40;;;4.00;;
50681;SDS011;36779;52.168;20.878;2023-06-14T08:23:27;8.10;;;3.90;;
50681;SDS011;36779;52.168;20.878;2023-06-14T08:26:00;6.70;;;3.80;;
50681;SDS011;36779;52.168;20.878;2023-06-14T08:28:35;8.30;;;4.40;;
50681;SDS011;36779;52.168;20.878;2023-06-14T08:31:08;7.30;;;3.50;;
50681;SDS011;36779;52.168;20.878;2023-06-14T08:33:42;6.30;;;3.30;;
50681;SDS011;36779;52.168;20.878;2023-06-14T08:36:15;4.60;;;3.20;;
50681;SDS011;36779;52.168;20.878;2023-06-14T08:38:48;6.60;;;3.70;;
50681;SDS011;36779;52.168;20.878;2023-06-14T08:41:26;7.20;;;4.40;;
50681;SDS011;36779;52.168;20.878;2023-06-14T08:44:03;4.30;;;3.90;;
50681;SDS011;36779;52.168;20.878;2023-06-14T08:46:39;7.00;;;4.50;;
50681;SDS011;36779;52.168;20.878;2023-06-14T08:49:20;6.00;;;4.40;;
50681;SDS011;36779;52.168;20.878;2023-06-14T08:51:56;7.00;;;4.50;;
50681;SDS011;36779;52.168;20.878;2023-06-14T08:57:07;7.00;;;3.90;;
50681;SDS011;36779;52.168;20.878;2023-06-14T08:59:49;7.30;;;4.10;;
50681;SDS011;36779;52.168;20.878;2023-06-14T09:02:32;7.50;;;4.60;;
50681;SDS011;36779;52.168;20.878;2023-06-14T09:05:07;7.40;;;4.70;;
50681;SDS011;36779;52.168;20.878;2023-06-14T09:07:42;7.20;;;4.30;;
50681;SDS011;36779;52.168;20.878;2023-06-14T09:10:18;5.90;;;4.50;;
50681;SDS011;36779;52.168;20.878;2023-06-14T09:12:56;8.60;;;4.40;;
50681;SDS011;36779;52.168;20.878;2023-06-14T09:15:31;9.70;;;4.60;;
50681;SDS011;36779;52.168;20.878;2023-06-14T09:18:04;8.50;;;4.00;;
50681;SDS011;36779;52.168;20.878;2023-06-14T09:20:37;6.10;;;4.00;;
50681;SDS011;36779;52.168;20.878;2023-06-14T09:23:10;6.80;;;3.70;;
50681;SDS011;36779;52.168;20.878;2023-06-14T09:25:46;7.20;;;3.80;;
50681;SDS011;36779;52.168;20.878;2023-06-14T09:28:19;11.00;;;4.80;;
50681;SDS011;36779;52.168;20.878;2023-06-14T09:30:57;7.10;;;4.20;;
50681;SDS011;36779;52.168;20.878;2023-06-14T09:33:30;11.40;;;6.50;;
50681;SDS011;36779;52.168;20.878;2023-06-14T09:36:04;11.20;;;5.90;;
50681;SDS011;36779;52.168;20.878;2023-06-14T09:38:41;7.30;;;5.40;;
50681;SDS011;36779;52.168;20.878;2023-06-14T09:41:22;6.90;;;5.30;;
50681;SDS011;36779;52.168;20.878;2023-06-14T09:44:08;8.20;;;4.80;;
50681;SDS011;36779;52.168;20.878;2023-06-14T09:46:49;11.60;;;5.20;;
50681;SDS011;36779;52.168;20.878;2023-06-14T09:49:31;13.80;;;5.50;;
50681;SDS011;36779;52.168;20.878;2023-06-14T09:52:06;7.20;;;5.00;;
50681;SDS011;36779;52.168;20.878;2023-06-14T09:54:48;8.30;;;5.30;;
50681;SDS011;36779;52.168;20.878;2023-06-14T09:57:22;8.40;;;5.20;;
50681;SDS011;36779;52.168;20.878;2023-06-14T10:00:01;6.80;;;4.90;;
50681;SDS011;36779;52.168;20.878;2023-06-14T10:02:40;11.30;;;5.20;;
50681;SDS011;36779;52.168;20.878;2023-06-14T10:05:20;9.00;;;5.60;;
50681;SDS011;36779;52.168;20.878;2023-06-14T10:08:00;8.40;;;5.70;;
50681;SDS011;36779;52.168;20.878;2023-06-14T10:10:39;10.70;;;6.50;;
50681;SDS011;36779;52.168;20.878;2023-06-14T10:13:12;7.40;;;5.90;;
50681;SDS011;36779;52.168;20.878;2023-06-14T10:15:52;10.60;;;6.30;;
50681;SDS011;36779;52.168;20.878;2023-06-14T10:18:33;11.40;;;6.30;;
50681;SDS011;36779;52.168;20.878;2023-06-14T10:21:16;7.70;;;5.50;;
50681;SDS011;36779;52.168;20.878;2023-06-14T10:24:01;8.80;;;5.60;;
50681;SDS011;36779;52.168;20.878;2023-06-14T10:26:40;9.30;;;5.30;;
50681;SDS011;36779;52.168;20.878;2023-06-14T10:29:26;5.40;;;4.70;;
50681;SDS011;36779;52.168;20.878;2023-06-14T10:32:02;8.30;;;4.50;;
50681;SDS011;36779;52.168;20.878;2023-06-14T10:34:38;6.50;;;4.30;;
50681;SDS011;36779;52.168;20.878;2023-06-14T10:37:16;10.50;;;4.60;;
50681;SDS011;36779;52.168;20.878;2023-06-14T10:39:49;5.70;;;4.40;;
50681;SDS011;36779;52.168;20.878;2023-06-14T10:42:23;7.60;;;4.30;;
50681;SDS011;36779;52.168;20.878;2023-06-14T10:45:07;6.40;;;4.50;;
50681;SDS011;36779;52.168;20.878;2023-06-14T10:47:47;7.70;;;4.50;;
50681;SDS011;36779;52.168;20.878;2023-06-14T10:50:28;4.60;;;3.80;;
50681;SDS011;36779;52.168;20.878;2023-06-14T10:53:09;13.10;;;4.30;;
50681;SDS011;36779;52.168;20.878;2023-06-14T10:55:57;5.70;;;3.40;;
50681;SDS011;36779;52.168;20.878;2023-06-14T10:58:40;8.00;;;3.90;;
50681;SDS011;36779;52.168;20.878;2023-06-14T11:01:13;8.00;;;3.40;;
50681;SDS011;36779;52.168;20.878;2023-06-14T11:03:51;8.90;;;3.50;;
50681;SDS011;36779;52.168;20.878;2023-06-14T11:09:17;6.00;;;3.40;;
50681;SDS011;36779;52.168;20.878;2023-06-14T11:12:06;7.80;;;3.70;;
50681;SDS011;36779;52.168;20.878;2023-06-14T11:14:44;4.80;;;3.50;;
50681;SDS011;36779;52.168;20.878;2023-06-14T11:17:18;4.30;;;3.40;;
50681;SDS011;36779;52.168;20.878;2023-06-14T11:19:53;6.20;;;3.90;;
50681;SDS011;36779;52.168;20.878;2023-06-14T11:22:40;6.60;;;3.50;;
50681;SDS011;36779;52.168;20.878;2023-06-14T11:25:13;5.10;;;3.60;;
50681;SDS011;36779;52.168;20.878;2023-06-14T11:27:48;7.20;;;3.30;;
50681;SDS011;36779;52.168;20.878;2023-06-14T11:30:22;5.20;;;3.70;;
50681;SDS011;36779;52.168;20.878;2023-06-14T11:35:30;7.10;;;3.90;;
50681;SDS011;36779;52.168;20.878;2023-06-14T11:38:07;4.50;;;2.90;;
50681;SDS011;36779;52.168;20.878;2023-06-14T11:40:42;5.90;;;3.10;;
50681;SDS011;36779;52.168;20.878;2023-06-14T11:43:14;6.70;;;3.30;;
50681;SDS011;36779;52.168;20.878;2023-06-14T11:45:49;5.60;;;3.00;;
50681;SDS011;36779;52.168;20.878;2023-06-14T11:48:40;4.40;;;2.80;;
50681;SDS011;36779;52.168;20.878;2023-06-14T11:51:16;4.90;;;3.00;;
50681;SDS011;36779;52.168;20.878;2023-06-14T11:53:49;4.60;;;2.90;;
50681;SDS011;36779;52.168;20.878;2023-06-14T11:56:22;8.00;;;3.30;;
50681;SDS011;36779;52.168;20.878;2023-06-14T11:59:01;7.20;;;3.50;;
50681;SDS011;36779;52.168;20.878;2023-06-14T12:01:42;5.60;;;3.30;;
50681;SDS011;36779;52.168;20.878;2023-06-14T12:04:26;6.30;;;3.80;;
50681;SDS011;36779;52.168;20.878;2023-06-14T12:07:09;7.60;;;3.30;;
50681;SDS011;36779;52.168;20.878;2023-06-14T12:10:03;6.50;;;3.20;;
50681;SDS011;36779;52.168;20.878;2023-06-14T12:12:38;5.90;;;3.40;;
50681;SDS011;36779;52.168;20.878;2023-06-14T12:15:13;4.60;;;3.40;;
50681;SDS011;36779;52.168;20.878;2023-06-14T12:17:50;7.30;;;3.20;;
50681;SDS011;36779;52.168;20.878;2023-06-14T12:20:28;5.50;;;3.10;;
50681;SDS011;36779;52.168;20.878;2023-06-14T12:23:02;8.40;;;2.90;;
50681;SDS011;36779;52.168;20.878;2023-06-14T12:25:38;6.10;;;3.00;;
50681;SDS011;36779;52.168;20.878;2023-06-14T12:28:15;7.40;;;3.30;;
50681;SDS011;36779;52.168;20.878;2023-06-14T12:30:48;3.50;;;2.80;;
50681;SDS011;36779;52.168;20.878;2023-06-14T12:33:25;5.00;;;3.30;;
50681;SDS011;36779;52.168;20.878;2023-06-14T12:36:02;6.30;;;3.20;;
50681;SDS011;36779;52.168;20.878;2023-06-14T12:38:36;3.50;;;2.50;;
50681;SDS011;36779;52.168;20.878;2023-06-14T12:41:09;3.70;;;2.40;;
50681;SDS011;36779;52.168;20.878;2023-06-14T12:43:44;3.20;;;2.50;;
50681;SDS011;36779;52.168;20.878;2023-06-14T12:46:17;5.30;;;3.10;;
50681;SDS011;36779;52.168;20.878;2023-06-14T12:48:50;3.20;;;2.00;;
50681;SDS011;36779;52.168;20.878;2023-06-14T12:51:26;3.50;;;1.60;;
50681;SDS011;36779;52.168;20.878;2023-06-14T12:54:02;3.40;;;2.60;;
50681;SDS011;36779;52.168;20.878;2023-06-14T12:56:35;4.30;;;2.00;;
50681;SDS011;36779;52.168;20.878;2023-06-14T12:59:08;4.00;;;2.00;;
50681;SDS011;36779;52.168;20.878;2023-06-14T13:01:41;5.90;;;2.80;;
50681;SDS011;36779;52.168;20.878;2023-06-14T13:04:22;4.80;;;2.60;;
50681;SDS011;36779;52.168;20.878;2023-06-14T13:06:57;5.10;;;2.60;;
50681;SDS011;36779;52.168;20.878;2023-06-14T13:09:31;6.80;;;2.80;;
50681;SDS011;36779;52.168;20.878;2023-06-14T13:12:09;2.90;;;2.30;;
50681;SDS011;36779;52.168;20.878;2023-06-14T13:14:43;5.80;;;2.70;;
50681;SDS011;36779;52.168;20.878;2023-06-14T13:17:20;7.60;;;3.00;;
50681;SDS011;36779;52.168;20.878;2023-06-14T13:19:55;4.30;;;2.80;;
50681;SDS011;36779;52.168;20.878;2023-06-14T13:22:30;6.90;;;3.00;;
50681;SDS011;36779;52.168;20.878;2023-06-14T13:25:07;5.70;;;2.40;;
50681;SDS011;36779;52.168;20.878;2023-06-14T13:27:40;5.50;;;2.40;;
50681;SDS011;36779;52.168;20.878;2023-06-14T13:30:20;5.10;;;2.40;;
50681;SDS011;36779;52.168;20.878;2023-06-14T13:32:54;3.10;;;2.30;;
50681;SDS011;36779;52.168;20.878;2023-06-14T13:35:26;4.90;;;2.30;;
50681;SDS011;36779;52.168;20.878;2023-06-14T13:37:59;6.70;;;3.20;;
50681;SDS011;36779;52.168;20.878;2023-06-14T13:40:35;3.80;;;1.80;;
50681;SDS011;36779;52.168;20.878;2023-06-14T13:43:09;4.30;;;1.90;;
50681;SDS011;36779;52.168;20.878;2023-06-14T13:45:42;9.00;;;2.40;;
50681;SDS011;36779;52.168;20.878;2023-06-14T13:48:17;5.00;;;2.20;;
50681;SDS011;36779;52.168;20.878;2023-06-14T13:50:54;3.70;;;1.80;;
50681;SDS011;36779;52.168;20.878;2023-06-14T13:53:27;4.30;;;2.00;;
50681;SDS011;36779;52.168;20.878;2023-06-14T13:56:00;3.20;;;2.10;;
50681;SDS011;36779;52.168;20.878;2023-06-14T13:58:35;8.60;;;3.70;;
50681;SDS011;36779;52.168;20.878;2023-06-14T14:01:07;4.50;;;2.00;;
50681;SDS011;36779;52.168;20.878;2023-06-14T14:03:45;5.50;;;2.10;;
50681;SDS011;36779;52.168;20.878;2023-06-14T14:06:24;5.40;;;2.60;;
50681;SDS011;36779;52.168;20.878;2023-06-14T14:09:03;4.00;;;2.20;;
50681;SDS011;36779;52.168;20.878;2023-06-14T14:11:45;3.90;;;2.50;;
50681;SDS011;36779;52.168;20.878;2023-06-14T14:14:19;3.90;;;2.40;;
50681;SDS011;36779;52.168;20.878;2023-06-14T14:16:54;3.60;;;2.40;;
50681;SDS011;36779;52.168;20.878;2023-06-14T14:19:27;5.90;;;2.60;;
50681;SDS011;36779;52.168;20.878;2023-06-14T14:22:00;4.40;;;2.60;;
50681;SDS011;36779;52.168;20.878;2023-06-14T14:24:32;8.80;;;3.40;;
50681;SDS011;36779;52.168;20.878;2023-06-14T14:27:10;6.80;;;3.10;;
50681;SDS011;36779;52.168;20.878;2023-06-14T14:29:42;4.40;;;2.90;;
50681;SDS011;36779;52.168;20.878;2023-06-14T14:32:16;7.40;;;3.00;;
50681;SDS011;36779;52.168;20.878;2023-06-14T14:37:29;4.10;;;2.40;;
50681;SDS011;36779;52.168;20.878;2023-06-14T14:40:09;3.50;;;2.20;;
50681;SDS011;36779;52.168;20.878;2023-06-14T14:42:47;8.00;;;2.50;;
50681;SDS011;36779;52.168;20.878;2023-06-14T14:45:19;3.40;;;2.30;;
50681;SDS011;36779;52.168;20.878;2023-06-14T14:47:54;6.20;;;2.50;;
50681;SDS011;36779;52.168;20.878;2023-06-14T14:50:31;2.80;;;2.20;;
50681;SDS011;36779;52.168;20.878;2023-06-14T14:53:05;3.70;;;2.30;;
50681;SDS011;36779;52.168;20.878;2023-06-14T14:55:37;5.20;;;2.20;;
50681;SDS011;36779;52.168;20.878;2023-06-14T14:58:11;3.60;;;2.00;;
50681;SDS011;36779;52.168;20.878;2023-06-14T15:00:46;5.50;;;2.10;;
50681;SDS011;36779;52.168;20.878;2023-06-14T15:03:22;4.80;;;2.50;;
50681;SDS011;36779;52.168;20.878;2023-06-14T15:06:27;5.90;;;2.60;;
50681;SDS011;36779;52.168;20.878;2023-06-14T15:09:13;5.40;;;2.10;;
50681;SDS011;36779;52.168;20.878;2023-06-14T15:11:45;3.10;;;2.20;;
50681;SDS011;36779;52.168;20.878;2023-06-14T15:14:18;3.30;;;2.50;;
50681;SDS011;36779;52.168;20.878;2023-06-14T15:16:51;5.00;;;2.20;;
50681;SDS011;36779;52.168;20.878;2023-06-14T15:19:28;5.10;;;2.70;;
50681;SDS011;36779;52.168;20.878;2023-06-14T15:22:03;4.90;;;3.50;;
50681;SDS011;36779;52.168;20.878;2023-06-14T15:27:38;3.90;;;2.40;;
50681;SDS011;36779;52.168;20.878;2023-06-14T15:30:12;3.90;;;2.30;;
50681;SDS011;36779;52.168;20.878;2023-06-14T15:32:48;4.40;;;2.40;;
50681;SDS011;36779;52.168;20.878;2023-06-14T15:35:20;5.30;;;2.10;;
50681;SDS011;36779;52.168;20.878;2023-06-14T15:37:56;4.80;;;2.60;;
50681;SDS011;36779;52.168;20.878;2023-06-14T15:40:29;3.10;;;2.30;;
50681;SDS011;36779;52.168;20.878;2023-06-14T15:43:01;2.90;;;2.10;;
50681;SDS011;36779;52.168;20.878;2023-06-14T15:45:33;3.70;;;2.40;;
50681;SDS011;36779;52.168;20.878;2023-06-14T15:48:07;5.30;;;2.60;;